SJV911 WIBB-WIII
Flight info
| Callsign | SJV911 |
|---|---|
| Flight time | N/A |
| Altitude | 37000 |
| Route | ISROR T5 BUNIK |
| Aircraft | A320/M-SDE3FGHIRWY/LB1 |
Departure
| Time | 2026-04-29 11:08 |
|---|---|
| Airport | Sultan Syarif Kasim II International Airport / Roesmin Nurjadin AFB (WIBB) |
Arrival
| Time | N/A |
|---|---|
| Airport | Soekarno-Hatta International Airport (WIII) |
| Time | Latitude | Longitude | Altitude | Speed | Heading |
|---|---|---|---|---|---|
| 2026-04-29 10:45 | 0.46557 | 101.44684 | 111 ft | 0 kts | 91° |
| 2026-04-29 10:58 | 0.46557 | 101.44681 | 111 ft | 2 kts | 92° |
| 2026-04-29 10:58 | 0.46558 | 101.44666 | 111 ft | 2 kts | 91° |
| 2026-04-29 10:58 | 0.46558 | 101.44651 | 111 ft | 2 kts | 91° |
| 2026-04-29 10:59 | 0.46558 | 101.44637 | 111 ft | 2 kts | 91° |
| 2026-04-29 10:59 | 0.46559 | 101.44624 | 111 ft | 2 kts | 91° |
| 2026-04-29 10:59 | 0.46559 | 101.44611 | 111 ft | 2 kts | 91° |
| 2026-04-29 10:59 | 0.46563 | 101.44598 | 111 ft | 2 kts | 140° |
| 2026-04-29 11:00 | 0.46572 | 101.44594 | 111 ft | 0 kts | 178° |
| 2026-04-29 11:00 | 0.46580 | 101.44595 | 111 ft | 1 kts | 183° |
| 2026-04-29 11:02 | 0.46578 | 101.44595 | 110 ft | 1 kts | 182° |
| 2026-04-29 11:03 | 0.46548 | 101.44593 | 110 ft | 7 kts | 182° |
| 2026-04-29 11:03 | 0.46477 | 101.44591 | 111 ft | 11 kts | 182° |
| 2026-04-29 11:03 | 0.46392 | 101.44584 | 111 ft | 11 kts | 211° |
| 2026-04-29 11:03 | 0.46383 | 101.44540 | 111 ft | 5 kts | 271° |
| 2026-04-29 11:04 | 0.46383 | 101.44488 | 111 ft | 8 kts | 261° |
| 2026-04-29 11:04 | 0.46318 | 101.44457 | 110 ft | 14 kts | 181° |
| 2026-04-29 11:04 | 0.46186 | 101.44453 | 111 ft | 22 kts | 181° |
| 2026-04-29 11:04 | 0.46030 | 101.44449 | 110 ft | 19 kts | 181° |
| 2026-04-29 11:05 | 0.45886 | 101.44444 | 111 ft | 21 kts | 181° |
| 2026-04-29 11:05 | 0.45743 | 101.44441 | 111 ft | 21 kts | 181° |
| 2026-04-29 11:05 | 0.45589 | 101.44436 | 111 ft | 22 kts | 182° |
| 2026-04-29 11:05 | 0.45432 | 101.44431 | 111 ft | 22 kts | 181° |
| 2026-04-29 11:06 | 0.45281 | 101.44428 | 110 ft | 21 kts | 181° |
| 2026-04-29 11:06 | 0.45137 | 101.44424 | 110 ft | 20 kts | 181° |
| 2026-04-29 11:06 | 0.44996 | 101.44419 | 111 ft | 20 kts | 182° |
| 2026-04-29 11:06 | 0.44855 | 101.44418 | 111 ft | 20 kts | 163° |
| 2026-04-29 11:07 | 0.44779 | 101.44415 | 111 ft | 12 kts | 326° |
| 2026-04-29 11:07 | 0.44812 | 101.44415 | 110 ft | 0 kts | 2° |
| 2026-04-29 11:07 | 0.44830 | 101.44415 | 111 ft | 19 kts | 2° |
| 2026-04-29 11:07 | 0.45240 | 101.44426 | 111 ft | 96 kts | 359° |
| 2026-04-29 11:08 | 0.46130 | 101.44449 | 112 ft | 157 kts | 0° |
| 2026-04-29 11:08 | 0.47266 | 101.44476 | 567 ft | 169 kts | 360° |
| 2026-04-29 11:08 | 0.48440 | 101.44501 | 1234 ft | 172 kts | 359° |
| 2026-04-29 11:08 | 0.49622 | 101.44537 | 1960 ft | 173 kts | 1° |
| 2026-04-29 11:09 | 0.50795 | 101.44885 | 2457 ft | 188 kts | 37° |
| 2026-04-29 11:09 | 0.51467 | 101.46065 | 2862 ft | 209 kts | 78° |
| 2026-04-29 11:09 | 0.51607 | 101.47568 | 3322 ft | 226 kts | 85° |
| 2026-04-29 11:09 | 0.51758 | 101.49184 | 3676 ft | 249 kts | 81° |
| 2026-04-29 11:10 | 0.52067 | 101.50958 | 4175 ft | 268 kts | 77° |
| 2026-04-29 11:10 | 0.52510 | 101.52827 | 4814 ft | 281 kts | 74° |
| 2026-04-29 11:10 | 0.53022 | 101.54710 | 5669 ft | 285 kts | 73° |
| 2026-04-29 11:10 | 0.53572 | 101.56632 | 6540 ft | 289 kts | 72° |
| 2026-04-29 11:11 | 0.54129 | 101.58543 | 7376 ft | 293 kts | 72° |
| 2026-04-29 11:11 | 0.54704 | 101.60519 | 8219 ft | 298 kts | 74° |
| 2026-04-29 11:11 | 0.54882 | 101.62565 | 8993 ft | 304 kts | 101° |
| 2026-04-29 11:11 | 0.54019 | 101.64476 | 9799 ft | 304 kts | 133° |
| 2026-04-29 11:12 | 0.52352 | 101.65717 | 10555 ft | 303 kts | 162° |
| 2026-04-29 11:12 | 0.50295 | 101.66253 | 11057 ft | 314 kts | 172° |
| 2026-04-29 11:12 | 0.48071 | 101.66663 | 11457 ft | 332 kts | 172° |
| 2026-04-29 11:12 | 0.45756 | 101.67100 | 11814 ft | 350 kts | 172° |
| 2026-04-29 11:13 | 0.43357 | 101.67585 | 12372 ft | 360 kts | 171° |
| 2026-04-29 11:13 | 0.40920 | 101.68098 | 13178 ft | 361 kts | 171° |
| 2026-04-29 11:13 | 0.38470 | 101.68621 | 13989 ft | 362 kts | 171° |
| 2026-04-29 11:13 | 0.35996 | 101.69150 | 14742 ft | 365 kts | 170° |
| 2026-04-29 11:14 | 0.33521 | 101.69684 | 15467 ft | 368 kts | 169° |
| 2026-04-29 11:14 | 0.31047 | 101.70378 | 16171 ft | 372 kts | 163° |
| 2026-04-29 11:14 | 0.28640 | 101.71308 | 16854 ft | 376 kts | 158° |
| 2026-04-29 11:14 | 0.26271 | 101.72436 | 17530 ft | 379 kts | 156° |
| 2026-04-29 11:15 | 0.23907 | 101.73612 | 18169 ft | 382 kts | 155° |
| 2026-04-29 11:15 | 0.21513 | 101.74809 | 18780 ft | 385 kts | 155° |
| 2026-04-29 11:15 | 0.19097 | 101.76012 | 19390 ft | 388 kts | 154° |
| 2026-04-29 11:15 | 0.16898 | 101.77584 | 19910 ft | 396 kts | 134° |
| 2026-04-29 11:16 | 0.15258 | 101.79825 | 20542 ft | 399 kts | 124° |
| 2026-04-29 11:16 | 0.13784 | 101.82164 | 21150 ft | 402 kts | 124° |
| 2026-04-29 11:16 | 0.12288 | 101.84544 | 21714 ft | 404 kts | 124° |
| 2026-04-29 11:16 | 0.10779 | 101.86900 | 22271 ft | 407 kts | 124° |
| 2026-04-29 11:17 | 0.09221 | 101.89291 | 22832 ft | 409 kts | 125° |
| 2026-04-29 11:17 | 0.07652 | 101.91672 | 23368 ft | 412 kts | 125° |
| 2026-04-29 11:17 | 0.06066 | 101.94062 | 23886 ft | 414 kts | 125° |
| 2026-04-29 11:17 | 0.04457 | 101.96476 | 24391 ft | 417 kts | 125° |
| 2026-04-29 11:18 | 0.02847 | 101.98886 | 24876 ft | 419 kts | 125° |
| 2026-04-29 11:18 | 0.01214 | 102.01328 | 25349 ft | 422 kts | 125° |
| 2026-04-29 11:18 | -0.00424 | 102.03775 | 25805 ft | 424 kts | 124° |
| 2026-04-29 11:18 | -0.01524 | 102.05415 | 26100 ft | 426 kts | 124° |